Observation data for Brownfield on 12/12/2018      Previous  Date       Current Mesonet Observations  Soil Data  Daily Summary Page  Observations in Plain Language
KBWS 120600Z 25005KT 05/04 A3001 RMK A01 T00490036  RH  093%=      5-min Rain = 0
KBWS 120605Z 24007KT 05/04 A3002 RMK A01 T00490038  RH  094%=      5-min Rain = 0
KBWS 120610Z 23007KT 05/04 A3002 RMK A01 T00510039  RH  094%=      5-min Rain = 0
KBWS 120615Z 23008KT 05/04 A3001 RMK A01 T00500038  RH  093%=      5-min Rain = 0
KBWS 120620Z 22008KT 05/04 A3001 RMK A01 T00500039  RH  094%=      5-min Rain = 0
KBWS 120625Z 22007KT 05/04 A3001 RMK A01 T00490037  RH  094%=      5-min Rain = 0
KBWS 120630Z 24007KT 05/04 A3001 RMK A01 T00500040  RH  094%=      5-min Rain = 0
KBWS 120635Z 23006KT 05/04 A3001 RMK A01 T00510038  RH  093%=      5-min Rain = 0
KBWS 120640Z 23006KT 05/04 A30 RMK A01 T00470035  RH  093%=      5-min Rain = 0
KBWS 120645Z 24006KT 05/04 A30 RMK A01 T00470036  RH  094%=      5-min Rain = 0
KBWS 120650Z 22008KT 05/03 A30 RMK A01 T00460034  RH  093%=      5-min Rain = 0
KBWS 120655Z 22009KT 04/03 A2999 RMK A01 T00430033  RH  094%=      5-min Rain = 0
KBWS 120700Z 22009KT 04/03 A2999 RMK A01 T00430034  RH  094%=      5-min Rain = 0
KBWS 120705Z 25007KT 05/04 A2999 RMK A01 T00450036  RH  095%=      5-min Rain = 0
KBWS 120710Z 27004KT 05/03 A30 RMK A01 T00460034  RH  093%=      5-min Rain = 0
KBWS 120715Z 27005KT 04/03 A3001 RMK A01 T00440032  RH  093%=      5-min Rain = 0
KBWS 120720Z 23008KT 04/03 A30 RMK A01 T00400030  RH  094%=      5-min Rain = 0
KBWS 120725Z 24010KT 04/03 A2999 RMK A01 T00410032  RH  095%=      5-min Rain = 0
KBWS 120730Z 23008KT 04/03 A2999 RMK A01 T00420030  RH  093%=      5-min Rain = 0
KBWS 120735Z 29005KT 04/03 A2999 RMK A01 T00410031  RH  094%=      5-min Rain = 0
KBWS 120740Z 24008KT 04/03 A2998 RMK A01 T00400030  RH  094%=      5-min Rain = 0
KBWS 120745Z 28007KT 04/03 A2999 RMK A01 T00400029  RH  094%=      5-min Rain = 0
KBWS 120750Z 28007KT 04/03 A2998 RMK A01 T00410030  RH  094%=      5-min Rain = 0
KBWS 120755Z 27007KT 04/03 A2998 RMK A01 T00430031  RH  093%=      5-min Rain = 0
KBWS 120800Z 26007KT 04/03 A2998 RMK A01 T00440032  RH  093%=      5-min Rain = 0
KBWS 120805Z 25007KT 04/03 A2998 RMK A01 T00430030  RH  092%=      5-min Rain = 0
KBWS 120810Z 26007KT 04/03 A2998 RMK A01 T00420030  RH  093%=      5-min Rain = 0
KBWS 120815Z 26006KT 04/03 A2998 RMK A01 T00420030  RH  093%=      5-min Rain = 0
KBWS 120820Z 26005KT 04/03 A2998 RMK A01 T00420029  RH  093%=      5-min Rain = 0
KBWS 120825Z 25006KT 04/03 A2998 RMK A01 T00390027  RH  093%=      5-min Rain = 0
KBWS 120830Z 24007KT 04/03 A2998 RMK A01 T00380027  RH  094%=      5-min Rain = 0
KBWS 120835Z 24007KT 04/03 A2998 RMK A01 T00400030  RH  094%=      5-min Rain = 0
KBWS 120840Z 23008KT 04/03 A2998 RMK A01 T00400028  RH  093%=      5-min Rain = 0
KBWS 120845Z 24006KT 04/03 A2998 RMK A01 T00390028  RH  094%=      5-min Rain = 0
KBWS 120850Z 24007KT 04/03 A2998 RMK A01 T00400028  RH  094%=      5-min Rain = 0
KBWS 120855Z 24007KT 04/03 A2997 RMK A01 T00390028  RH  093%=      5-min Rain = 0
KBWS 120900Z 25007KT 04/03 A2997 RMK A01 T00390027  RH  093%=      5-min Rain = 0
KBWS 120905Z 25008KT 04/03 A2997 RMK A01 T00380027  RH  094%=      5-min Rain = 0
KBWS 120910Z 25008KT 04/03 A2997 RMK A01 T00370027  RH  094%=      5-min Rain = 0
KBWS 120915Z 24009KT 04/03 A2996 RMK A01 T00370027  RH  094%=      5-min Rain = 0
KBWS 120920Z 25008KT 04/03 A2996 RMK A01 T00370027  RH  094%=      5-min Rain = 0
KBWS 120925Z 26007KT 04/03 A2996 RMK A01 T00380028  RH  094%=      5-min Rain = 0
KBWS 120930Z 26007KT 04/03 A2996 RMK A01 T00410028  RH  093%=      5-min Rain = 0
KBWS 120935Z 26008KT 04/03 A2996 RMK A01 T00410028  RH  092%=      5-min Rain = 0
KBWS 120940Z 26007KT 04/03 A2996 RMK A01 T00430028  RH  091%=      5-min Rain = 0
KBWS 120945Z 27006KT 04/03 A2996 RMK A01 T00440028  RH  090%=      5-min Rain = 0
KBWS 120950Z 26008KT 04/03 A2996 RMK A01 T00440026  RH  090%=      5-min Rain = 0
KBWS 120955Z 26008KT 04/03 A2997 RMK A01 T00420026  RH  090%=      5-min Rain = 0
KBWS 121000Z 26008KT 04/03 A2997 RMK A01 T00410026  RH  091%=      5-min Rain = 0
KBWS 121005Z 26008KT 04/03 A2997 RMK A01 T00420025  RH  090%=      5-min Rain = 0
KBWS 121010Z 26008KT 04/03 A2997 RMK A01 T00440025  RH  089%=      5-min Rain = 0
KBWS 121015Z 27008KT 05/03 A2997 RMK A01 T00470025  RH  087%=      5-min Rain = 0
KBWS 121020Z 27009KT 05/02 A2997 RMK A01 T00470024  RH  086%=      5-min Rain = 0
KBWS 121025Z 27009KT 05/02 A2997 RMK A01 T00490023  RH  084%=      5-min Rain = 0
KBWS 121030Z 27010KT 05/02 A2996 RMK A01 T00520023  RH  083%=      5-min Rain = 0
KBWS 121035Z 26010KT 05/02 A2996 RMK A01 T00520022  RH  082%=      5-min Rain = 0
KBWS 121040Z 27010KT 06/02 A2996 RMK A01 T00550021  RH  080%=      5-min Rain = 0
KBWS 121045Z 28010KT 06/02 A2995 RMK A01 T00550020  RH  079%=      5-min Rain = 0
KBWS 121050Z 28011KT 06/02 A2995 RMK A01 T00570019  RH  077%=      5-min Rain = 0
KBWS 121055Z 28011KT 06/02 A2995 RMK A01 T00580018  RH  077%=      5-min Rain = 0
KBWS 121100Z 27010KT 06/02 A2995 RMK A01 T00570018  RH  077%=      5-min Rain = 0
KBWS 121105Z 28009KT 06/02 A2995 RMK A01 T00550017  RH  078%=      5-min Rain = 0
KBWS 121110Z 27009KT 06/02 A2995 RMK A01 T00550016  RH  077%=      5-min Rain = 0
KBWS 121115Z 28009KT 05/02 A2995 RMK A01 T00540015  RH  077%=      5-min Rain = 0
KBWS 121120Z 28010KT 05/02 A2995 RMK A01 T00530015  RH  077%=      5-min Rain = 0
KBWS 121125Z 28010KT 05/01 A2995 RMK A01 T00540013  RH  076%=      5-min Rain = 0
KBWS 121130Z 28010KT 05/01 A2995 RMK A01 T00520013  RH  077%=      5-min Rain = 0
KBWS 121135Z 28010KT 05/01 A2995 RMK A01 T00520013  RH  077%=      5-min Rain = 0
KBWS 121140Z 29010KT 05/01 A2996 RMK A01 T00510013  RH  077%=      5-min Rain = 0
KBWS 121145Z 29010KT 05/01 A2995 RMK A01 T00480012  RH  079%=      5-min Rain = 0
KBWS 121150Z 30011KT 05/01 A2995 RMK A01 T00460012  RH  080%=      5-min Rain = 0
KBWS 121155Z 30010KT 04/01 A2996 RMK A01 T00440012  RH  081%=      5-min Rain = 0
KBWS 121200Z 31010KT 04/01 A2996 RMK A01 T00440012  RH  081%=      5-min Rain = 0
KBWS 121205Z 31011KT 04/01 A2996 RMK A01 T00430011  RH  081%=      5-min Rain = 0
KBWS 121210Z 31012KT 04/01 A2996 RMK A01 T00440011  RH  080%=      5-min Rain = 0
KBWS 121215Z 30012KT 05/01 A2996 RMK A01 T00450008  RH  078%=      5-min Rain = 0
KBWS 121220Z 31013KT 05/00 A2996 RMK A01 T00470002  RH  073%=      5-min Rain = 0
KBWS 121225Z 31013KT 05/M00 A2996 RMK A01 T00471001  RH  072%=      5-min Rain = 0
KBWS 121230Z 31012KT 04/00 A2996 RMK A01 T004400-0  RH  074%=      5-min Rain = 0
KBWS 121235Z 31011KT 04/M00 A2996 RMK A01 T00401001  RH  076%=      5-min Rain = 0
KBWS 121240Z 30012KT 04/M00 A2996 RMK A01 T00381004  RH  075%=      5-min Rain = 0
KBWS 121245Z 31011KT 04/M01 A2996 RMK A01 T00351006  RH  075%=      5-min Rain = 0
KBWS 121250Z 31010KT 03/M01 A2996 RMK A01 T00331008  RH  076%=      5-min Rain = 0
KBWS 121255Z 31011KT 03/M01 A2996 RMK A01 T00291007  RH  078%=      5-min Rain = 0
KBWS 121300Z 31011KT 03/M01 A2996 RMK A01 T00271010  RH  077%=      5-min Rain = 0
KBWS 121305Z 31011KT 03/M01 A2996 RMK A01 T00261013  RH  077%=      5-min Rain = 0
KBWS 121310Z 31009KT 02/M01 A2997 RMK A01 T00241014  RH  077%=      5-min Rain = 0
KBWS 121315Z 31009KT 02/M02 A2997 RMK A01 T00221015  RH  078%=      5-min Rain = 0
KBWS 121320Z 31009KT 02/M02 A2996 RMK A01 T00201016  RH  078%=      5-min Rain = 0
KBWS 121325Z 31010KT 02/M02 A2996 RMK A01 T00181018  RH  078%=      5-min Rain = 0
KBWS 121330Z 31010KT 02/M02 A2996 RMK A01 T00171019  RH  078%=      5-min Rain = 0
KBWS 121335Z 31009KT 02/M02 A2996 RMK A01 T00151020  RH  078%=      5-min Rain = 0
KBWS 121340Z 32010KT 01/M02 A2996 RMK A01 T00141023  RH  078%=      5-min Rain = 0
KBWS 121345Z 32010KT 01/M02 A2996 RMK A01 T00121024  RH  078%=      5-min Rain = 0
KBWS 121350Z 32009KT 01/M03 A2996 RMK A01 T00111025  RH  078%=      5-min Rain = 0
KBWS 121355Z 32009KT 01/M03 A2996 RMK A01 T00101026  RH  077%=      5-min Rain = 0
KBWS 121400Z 31009KT 01/M03 A2996 RMK A01 T00091027  RH  078%=      5-min Rain = 0
KBWS 121405Z 31010KT 01/M03 A2996 RMK A01 T00081027  RH  078%=      5-min Rain = 0
KBWS 121410Z 31011KT 01/M03 A2996 RMK A01 T00071027  RH  079%=      5-min Rain = 0
KBWS 121415Z 31012KT 01/M03 A2996 RMK A01 T00071028  RH  078%=      5-min Rain = 0
KBWS 121420Z 31012KT 01/M03 A2996 RMK A01 T00071029  RH  078%=      5-min Rain = 0
KBWS 121425Z 31011G16KT 01/M03 A2996 RMK A01 T00071029  RH  078%=      5-min Rain = 0
KBWS 121430Z 31012KT 01/M03 A2996 RMK A01 T00071031  RH  077%=      5-min Rain = 0
KBWS 121435Z 31013KT 01/M03 A2995 RMK A01 T00071032  RH  076%=      5-min Rain = 0
KBWS 121440Z 31013KT 01/M03 A2995 RMK A01 T00071031  RH  076%=      5-min Rain = 0
KBWS 121445Z 32012KT 01/M03 A2995 RMK A01 T00071032  RH  076%=      5-min Rain = 0
KBWS 121450Z 32012KT 01/M03 A2995 RMK A01 T00081032  RH  075%=      5-min Rain = 0
KBWS 121455Z 32011KT 01/M03 A2995 RMK A01 T00081032  RH  075%=      5-min Rain = 0
KBWS 121500Z 32011KT 01/M03 A2995 RMK A01 T00091032  RH  075%=      5-min Rain = 0
KBWS 121505Z 32012KT 01/M03 A2995 RMK A01 T00101032  RH  074%=      5-min Rain = 0
KBWS 121510Z 32012KT 01/M03 A2995 RMK A01 T00111033  RH  074%=      5-min Rain = 0
KBWS 121515Z 32011KT 01/M03 A2994 RMK A01 T00121032  RH  073%=      5-min Rain = 0
KBWS 121520Z 33012KT 01/M03 A2995 RMK A01 T00141033  RH  071%=      5-min Rain = 0
KBWS 121525Z 33012KT 02/M03 A2994 RMK A01 T00171033  RH  070%=      5-min Rain = 0
KBWS 121530Z 33011KT 02/M03 A2994 RMK A01 T00211032  RH  068%=      5-min Rain = 0
KBWS 121535Z 33009KT 03/M03 A2995 RMK A01 T00261031  RH  067%=      5-min Rain = 0
KBWS 121540Z 32007KT 03/M03 A2995 RMK A01 T00301030  RH  065%=      5-min Rain = 0
KBWS 121545Z 32006KT 03/M03 A2995 RMK A01 T00331028  RH  065%=      5-min Rain = 0
KBWS 121550Z 32007KT 04/M03 A2995 RMK A01 T00371029  RH  063%=      5-min Rain = 0
KBWS 121555Z 33008KT 04/M03 A2995 RMK A01 T00401027  RH  062%=      5-min Rain = 0
KBWS 121600Z 34008KT 04/M03 A2995 RMK A01 T00411029  RH  061%=      5-min Rain = 0
KBWS 121605Z 33003G8KT 04/M03 A2996 RMK A01 T00431028  RH  061%=      5-min Rain = 0
KBWS 121610Z 21004KT 05/M03 A2996 RMK A01 T00451025  RH  061%=      5-min Rain = 0
KBWS 121615Z 29004KT 05/M03 A2996 RMK A01 T00471025  RH  060%=      5-min Rain = 0
KBWS 121620Z 31005KT 05/M03 A2996 RMK A01 T00471026  RH  060%=      5-min Rain = 0
KBWS 121625Z 27003KT 05/M03 A2996 RMK A01 T00501026  RH  059%=      5-min Rain = 0
KBWS 121630Z 29004KT 05/M03 A2996 RMK A01 T00531028  RH  057%=      5-min Rain = 0
KBWS 121635Z 29005KT 06/M03 A2996 RMK A01 T00561026  RH  056%=      5-min Rain = 0
KBWS 121640Z 26006KT 06/M03 A2996 RMK A01 T00601025  RH  055%=      5-min Rain = 0
KBWS 121645Z 27006KT 06/M03 A2995 RMK A01 T00631025  RH  054%=      5-min Rain = 0
KBWS 121650Z 26005KT 06/M02 A2995 RMK A01 T00641023  RH  054%=      5-min Rain = 0
KBWS 121655Z 28005KT 07/M02 A2995 RMK A01 T00671018  RH  055%=      5-min Rain = 0
KBWS 121700Z 28006KT 07/M02 A2995 RMK A01 T00691022  RH  053%=      5-min Rain = 0
KBWS 121705Z 26006KT 07/M02 A2995 RMK A01 T00691022  RH  053%=      5-min Rain = 0
KBWS 121710Z 24005KT 07/M02 A2995 RMK A01 T00741017  RH  053%=      5-min Rain = 0
KBWS 121715Z 27004KT 08/M02 A2995 RMK A01 T00771019  RH  051%=      5-min Rain = 0
KBWS 121720Z 26004KT 08/M02 A2994 RMK A01 T00811018  RH  050%=      5-min Rain = 0
KBWS 121725Z 24004KT 09/M02 A2994 RMK A01 T00851016  RH  050%=      5-min Rain = 0
KBWS 121730Z 26004KT 09/M01 A2994 RMK A01 T00901013  RH  049%=      5-min Rain = 0
KBWS 121735Z 27004KT 09/M02 A2993 RMK A01 T00911017  RH  047%=      5-min Rain = 0
KBWS 121740Z 27005KT 10/M02 A2993 RMK A01 T00971018  RH  045%=      5-min Rain = 0
KBWS 121745Z 26006KT 10/M02 A2993 RMK A01 T00991016  RH  045%=      5-min Rain = 0
KBWS 121750Z 25006KT 10/M01 A2993 RMK A01 T01031009  RH  046%=      5-min Rain = 0
KBWS 121755Z 25007KT 10/M01 A2992 RMK A01 T01041013  RH  045%=      5-min Rain = 0
KBWS 121800Z 25007KT 11/M02 A2992 RMK A01 T01061015  RH  043%=      5-min Rain = 0
KBWS 121805Z 24008KT 11/M00 A2992 RMK A01 T01091003  RH  046%=      5-min Rain = 0
KBWS 121810Z 23008KT 11/M00 A2991 RMK A01 T01051002  RH  048%=      5-min Rain = 0
KBWS 121815Z 24009KT 10/M00 A2991 RMK A01 T01031001  RH  049%=      5-min Rain = 0
KBWS 121820Z 24010KT 10/M00 A2991 RMK A01 T01041003  RH  048%=      5-min Rain = 0
KBWS 121825Z 23009KT 11/01 A299 RMK A01 T01050005  RH  050%=      5-min Rain = 0
KBWS 121830Z 24008KT 11/00 A299 RMK A01 T01050004  RH  050%=      5-min Rain = 0
KBWS 121835Z 25008KT 11/00 A2989 RMK A01 T01110002  RH  047%=      5-min Rain = 0
KBWS 121840Z 25008KT 12/M00 A2989 RMK A01 T01191001  RH  044%=      5-min Rain = 0
KBWS 121845Z 24010KT 12/M00 A2989 RMK A01 T01181004  RH  043%=      5-min Rain = 0
KBWS 121850Z 22008KT 12/01 A2989 RMK A01 T01170009  RH  048%=      5-min Rain = 0
KBWS 121855Z 23008KT 12/01 A2988 RMK A01 T01200012  RH  048%=      5-min Rain = 0
KBWS 121900Z 23007KT 13/01 A2988 RMK A01 T01280013  RH  046%=      5-min Rain = 0
KBWS 121905Z 24009KT 13/01 A2987 RMK A01 T01300007  RH  044%=      5-min Rain = 0
KBWS 121910Z 23010KT 13/01 A2987 RMK A01 T01330010  RH  043%=      5-min Rain = 0
KBWS 121915Z 23008KT 13/01 A2987 RMK A01 T01340010  RH  043%=      5-min Rain = 0
KBWS 121920Z 23007KT 14/02 A2986 RMK A01 T01350017  RH  045%=      5-min Rain = 0
KBWS 121925Z 22008KT 14/02 A2986 RMK A01 T01350019  RH  046%=      5-min Rain = 0
KBWS 121930Z 22009KT 13/02 A2986 RMK A01 T01340015  RH  045%=      5-min Rain = 0
KBWS 121935Z 22010KT 13/02 A2986 RMK A01 T01310019  RH  047%=      5-min Rain = 0
KBWS 121940Z 21009KT 13/02 A2986 RMK A01 T01330023  RH  048%=      5-min Rain = 0
KBWS 121945Z 22009KT 14/02 A2985 RMK A01 T01350020  RH  046%=      5-min Rain = 0
KBWS 121950Z 23009KT 14/02 A2985 RMK A01 T01410017  RH  044%=      5-min Rain = 0
KBWS 121955Z 22009KT 15/02 A2984 RMK A01 T01470016  RH  041%=      5-min Rain = 0
KBWS 122000Z 21009KT 15/02 A2984 RMK A01 T01490018  RH  041%=      5-min Rain = 0
KBWS 122005Z 23007KT 15/02 A2983 RMK A01 T01510017  RH  041%=      5-min Rain = 0
KBWS 122010Z 22008KT 16/02 A2983 RMK A01 T01550019  RH  040%=      5-min Rain = 0
KBWS 122015Z 23009KT 16/02 A2982 RMK A01 T01600019  RH  039%=      5-min Rain = 0
KBWS 122020Z 24008KT 17/02 A2982 RMK A01 T01660022  RH  038%=      5-min Rain = 0
KBWS 122025Z 24008KT 17/02 A2981 RMK A01 T01660017  RH  037%=      5-min Rain = 0
KBWS 122030Z 24009KT 16/02 A2981 RMK A01 T01630020  RH  038%=      5-min Rain = 0
KBWS 122035Z 25009KT 16/02 A2981 RMK A01 T01580024  RH  041%=      5-min Rain = 0
KBWS 122040Z 24008KT 16/02 A2981 RMK A01 T01560024  RH  042%=      5-min Rain = 0
KBWS 122045Z 22007KT 16/03 A2981 RMK A01 T01560030  RH  043%=      5-min Rain = 0
KBWS 122050Z 19009KT 16/04 A2981 RMK A01 T01550040  RH  047%=      5-min Rain = 0
KBWS 122055Z 18012KT 15/05 A2981 RMK A01 T01480052  RH  053%=      5-min Rain = 0
KBWS 122100Z 19011KT 15/05 A2981 RMK A01 T01540048  RH  050%=      5-min Rain = 0
KBWS 122105Z 19010KT 16/05 A2981 RMK A01 T01550048  RH  049%=      5-min Rain = 0
KBWS 122110Z 21009KT 15/04 A298 RMK A01 T01490039  RH  048%=      5-min Rain = 0
KBWS 122115Z 21007KT 15/04 A298 RMK A01 T01460036  RH  048%=      5-min Rain = 0
KBWS 122120Z 21005KT 14/04 A298 RMK A01 T01440043  RH  051%=      5-min Rain = 0
KBWS 122125Z 21006KT 15/04 A2979 RMK A01 T01520043  RH  049%=      5-min Rain = 0
KBWS 122130Z 21005KT 16/04 A2979 RMK A01 T01640039  RH  044%=      5-min Rain = 0
KBWS 122135Z 20007KT 17/04 A2979 RMK A01 T01710038  RH  042%=      5-min Rain = 0
KBWS 122140Z 19007KT 18/04 A2978 RMK A01 T01750043  RH  042%=      5-min Rain = 0
KBWS 122145Z 19007KT 18/05 A2978 RMK A01 T01760045  RH  042%=      5-min Rain = 0
KBWS 122150Z 21005KT 18/05 A2978 RMK A01 T01790047  RH  042%=      5-min Rain = 0
KBWS 122155Z 22006G13KT 18/04 A2978 RMK A01 T01810044  RH  041%=      5-min Rain = 0
KBWS 122200Z 23011G17KT 18/04 A2977 RMK A01 T01790040  RH  040%=      5-min Rain = 0
KBWS 122205Z 24012KT 18/04 A2978 RMK A01 T01760041  RH  041%=      5-min Rain = 0
KBWS 122210Z 24012G17KT 17/04 A2978 RMK A01 T01720044  RH  043%=      5-min Rain = 0
KBWS 122215Z 24013KT 17/04 A2977 RMK A01 T01700042  RH  043%=      5-min Rain = 0
KBWS 122220Z 24011KT 17/04 A2977 RMK A01 T01670042  RH  044%=      5-min Rain = 0
KBWS 122225Z 23010KT 16/04 A2977 RMK A01 T01640043  RH  045%=      5-min Rain = 0
KBWS 122230Z 23010KT 16/04 A2977 RMK A01 T01620044  RH  046%=      5-min Rain = 0
KBWS 122235Z 23010KT 16/05 A2977 RMK A01 T01600046  RH  047%=      5-min Rain = 0
KBWS 122240Z 23011KT 16/05 A2977 RMK A01 T01590048  RH  048%=      5-min Rain = 0
KBWS 122245Z 22010KT 16/05 A2977 RMK A01 T01570051  RH  050%=      5-min Rain = 0
KBWS 122250Z 23011KT 16/05 A2977 RMK A01 T01560051  RH  050%=      5-min Rain = 0
KBWS 122255Z 23010KT 16/05 A2977 RMK A01 T01550048  RH  049%=      5-min Rain = 0
KBWS 122300Z 24009KT 15/05 A2977 RMK A01 T01530047  RH  050%=      5-min Rain = 0
KBWS 122305Z 24010KT 15/04 A2976 RMK A01 T01490044  RH  050%=      5-min Rain = 0
KBWS 122310Z 23009KT 15/04 A2976 RMK A01 T01460044  RH  051%=      5-min Rain = 0
KBWS 122315Z 23008KT 14/05 A2976 RMK A01 T01420046  RH  053%=      5-min Rain = 0
KBWS 122320Z 23008KT 14/05 A2976 RMK A01 T01370047  RH  055%=      5-min Rain = 0
KBWS 122325Z 24007KT 14/05 A2976 RMK A01 T01360045  RH  055%=      5-min Rain = 0
KBWS 122330Z 24007KT 13/05 A2976 RMK A01 T01340046  RH  056%=      5-min Rain = 0
KBWS 122335Z 25006KT 13/05 A2976 RMK A01 T01300048  RH  058%=      5-min Rain = 0
KBWS 122340Z 25006KT 12/05 A2975 RMK A01 T01240050  RH  061%=      5-min Rain = 0
KBWS 122345Z 25006KT 12/05 A2976 RMK A01 T01210050  RH  063%=      5-min Rain = 0
KBWS 122350Z 25006KT 12/05 A2976 RMK A01 T01190051  RH  064%=      5-min Rain = 0
KBWS 122355Z 25006KT 12/05 A2976 RMK A01 T01180051  RH  064%=      5-min Rain = 0
KBWS 130000Z 25007KT 12/05 A2976 RMK A01 T01180050  RH  064%=      5-min Rain = 0
KBWS 130005Z 25008KT 12/05 A2976 RMK A01 T01200050  RH  063%=      5-min Rain = 0
KBWS 130010Z 24008KT 12/05 A2976 RMK A01 T01220048  RH  061%=      5-min Rain = 0
KBWS 130015Z 24007KT 13/05 A2976 RMK A01 T01270046  RH  059%=      5-min Rain = 0
KBWS 130020Z 24006KT 12/05 A2976 RMK A01 T01240046  RH  059%=      5-min Rain = 0
KBWS 130025Z 24006KT 12/05 A2976 RMK A01 T01240045  RH  059%=      5-min Rain = 0
KBWS 130030Z 23006KT 12/05 A2976 RMK A01 T01220047  RH  061%=      5-min Rain = 0
KBWS 130035Z 24006KT 12/05 A2976 RMK A01 T01180048  RH  063%=      5-min Rain = 0
KBWS 130040Z 24006KT 12/05 A2976 RMK A01 T01150047  RH  064%=      5-min Rain = 0
KBWS 130045Z 23006KT 11/05 A2976 RMK A01 T01140047  RH  064%=      5-min Rain = 0
KBWS 130050Z 22006KT 11/05 A2976 RMK A01 T01110047  RH  066%=      5-min Rain = 0
KBWS 130055Z 21007KT 10/05 A2976 RMK A01 T01030049  RH  070%=      5-min Rain = 0
KBWS 130100Z 20008KT 10/05 A2976 RMK A01 T00990050  RH  073%=      5-min Rain = 0
KBWS 130105Z 21007KT 10/05 A2975 RMK A01 T00980050  RH  073%=      5-min Rain = 0
KBWS 130110Z 20006KT 10/05 A2975 RMK A01 T00960050  RH  074%=      5-min Rain = 0
KBWS 130115Z 20006KT 09/05 A2975 RMK A01 T00940050  RH  075%=      5-min Rain = 0
KBWS 130120Z 20006KT 09/05 A2975 RMK A01 T00930049  RH  075%=      5-min Rain = 0
KBWS 130125Z 20007KT 09/05 A2975 RMK A01 T00930049  RH  075%=      5-min Rain = 0
KBWS 130130Z 21009KT 10/05 A2975 RMK A01 T00990052  RH  074%=      5-min Rain = 0
KBWS 130135Z 21009KT 11/05 A2974 RMK A01 T01050053  RH  071%=      5-min Rain = 0
KBWS 130140Z 21010KT 11/05 A2974 RMK A01 T01070054  RH  071%=      5-min Rain = 0
KBWS 130145Z 21010KT 11/06 A2974 RMK A01 T01090055  RH  070%=      5-min Rain = 0
KBWS 130150Z 21009KT 11/05 A2974 RMK A01 T01090054  RH  070%=      5-min Rain = 0
KBWS 130155Z 22008KT 11/05 A2974 RMK A01 T01080054  RH  070%=      5-min Rain = 0
KBWS 130200Z 22009KT 11/05 A2974 RMK A01 T01100053  RH  069%=      5-min Rain = 0
KBWS 130205Z 22010KT 11/05 A2974 RMK A01 T01080053  RH  070%=      5-min Rain = 0
KBWS 130210Z 22010KT 11/05 A2974 RMK A01 T01050052  RH  071%=      5-min Rain = 0
KBWS 130215Z 21009KT 10/05 A2974 RMK A01 T01020052  RH  072%=      5-min Rain = 0
KBWS 130220Z 22009KT 10/05 A2974 RMK A01 T00980052  RH  074%=      5-min Rain = 0
KBWS 130225Z 22008KT 10/05 A2974 RMK A01 T00960052  RH  075%=      5-min Rain = 0
KBWS 130230Z 23009KT 10/05 A2974 RMK A01 T00980052  RH  074%=      5-min Rain = 0
KBWS 130235Z 22010KT 10/05 A2974 RMK A01 T00990051  RH  073%=      5-min Rain = 0
KBWS 130240Z 22010KT 10/05 A2973 RMK A01 T00970051  RH  074%=      5-min Rain = 0
KBWS 130245Z 22010KT 10/05 A2973 RMK A01 T00950051  RH  075%=      5-min Rain = 0
KBWS 130250Z 22011KT 10/05 A2973 RMK A01 T00970051  RH  074%=      5-min Rain = 0
KBWS 130255Z 22011KT 10/05 A2973 RMK A01 T00990050  RH  073%=      5-min Rain = 0
KBWS 130300Z 22011KT 10/05 A2973 RMK A01 T00980050  RH  073%=      5-min Rain = 0
KBWS 130305Z 22010KT 10/05 A2974 RMK A01 T00970050  RH  074%=      5-min Rain = 0
KBWS 130310Z 22011KT 10/05 A2974 RMK A01 T00970050  RH  073%=      5-min Rain = 0
KBWS 130315Z 22013KT 10/05 A2974 RMK A01 T00980049  RH  072%=      5-min Rain = 0
KBWS 130320Z 22012KT 10/05 A2973 RMK A01 T00980049  RH  073%=      5-min Rain = 0
KBWS 130325Z 22013KT 10/05 A2973 RMK A01 T00990049  RH  072%=      5-min Rain = 0
KBWS 130330Z 22012KT 10/05 A2973 RMK A01 T00980050  RH  073%=      5-min Rain = 0
KBWS 130335Z 22013KT 10/05 A2973 RMK A01 T00990050  RH  072%=      5-min Rain = 0
KBWS 130340Z 23012KT 10/05 A2973 RMK A01 T00980049  RH  072%=      5-min Rain = 0
KBWS 130345Z 23013KT 10/05 A2973 RMK A01 T00980048  RH  072%=      5-min Rain = 0
KBWS 130350Z 23012KT 10/05 A2973 RMK A01 T00980047  RH  072%=      5-min Rain = 0
KBWS 130355Z 23012KT 10/05 A2973 RMK A01 T00970047  RH  072%=      5-min Rain = 0
KBWS 130400Z 23012KT 10/05 A2973 RMK A01 T00960046  RH  072%=      5-min Rain = 0
KBWS 130405Z 23011KT 10/05 A2973 RMK A01 T00950045  RH  072%=      5-min Rain = 0
KBWS 130410Z 23011KT 09/05 A2973 RMK A01 T00940045  RH  073%=      5-min Rain = 0
KBWS 130415Z 23011KT 09/05 A2973 RMK A01 T00930045  RH  073%=      5-min Rain = 0
KBWS 130420Z 23012KT 09/05 A2973 RMK A01 T00930045  RH  073%=      5-min Rain = 0
KBWS 130425Z 23013KT 09/04 A2973 RMK A01 T00930044  RH  072%=      5-min Rain = 0
KBWS 130430Z 23013KT 09/04 A2973 RMK A01 T00940044  RH  072%=      5-min Rain = 0
KBWS 130435Z 23011KT 09/04 A2973 RMK A01 T00920044  RH  073%=      5-min Rain = 0
KBWS 130440Z 23012KT 09/04 A2973 RMK A01 T00900043  RH  074%=      5-min Rain = 0
KBWS 130445Z 23011KT 09/04 A2973 RMK A01 T00880043  RH  074%=      5-min Rain = 0
KBWS 130450Z 22010KT 09/04 A2973 RMK A01 T00860043  RH  075%=      5-min Rain = 0
KBWS 130455Z 23010KT 08/04 A2973 RMK A01 T00830042  RH  077%=      5-min Rain = 0
KBWS 130500Z 23010KT 08/04 A2973 RMK A01 T00820042  RH  077%=      5-min Rain = 0
KBWS 130505Z 23011KT 08/04 A2972 RMK A01 T00840042  RH  076%=      5-min Rain = 0
KBWS 130510Z 23010KT 09/04 A2972 RMK A01 T00850041  RH  075%=      5-min Rain = 0
KBWS 130515Z 23009KT 08/04 A2972 RMK A01 T00820041  RH  076%=      5-min Rain = 0
KBWS 130520Z 23009KT 08/04 A2972 RMK A01 T00800040  RH  077%=      5-min Rain = 0
KBWS 130525Z 23009KT 08/04 A2972 RMK A01 T00780040  RH  078%=      5-min Rain = 0
KBWS 130530Z 23009KT 08/04 A2972 RMK A01 T00780040  RH  078%=      5-min Rain = 0
KBWS 130535Z 24010KT 08/04 A2972 RMK A01 T00790040  RH  077%=      5-min Rain = 0
KBWS 130540Z 23010KT 08/04 A2972 RMK A01 T00780039  RH  077%=      5-min Rain = 0
KBWS 130545Z 23010KT 08/04 A2972 RMK A01 T00790039  RH  077%=      5-min Rain = 0
KBWS 130550Z 24011KT 08/04 A2972 RMK A01 T00810039  RH  076%=      5-min Rain = 0
KBWS 130555Z 23011KT 08/04 A2972 RMK A01 T00810039  RH  075%=      5-min Rain = 0

Page generated in 0.0338 seconds.